Terminal Aerodrome Forecast
Issued by NWS North Platte, NE

Home | Current Version | Previous Version | Text Only | Print | Product List | Glossary On
Versions: 1 2 3 4 5 6 7 8 9 10 11 12
000
FTUS43 KLBF 301700
TAFVTN
TAF
KVTN 301720Z 3018/3118 34016G24KT P6SM SKC
     FM310000 36008KT P6SM SCT020 BKN030
     FM310300 02007KT P6SM SCT010 BKN020
     FM310900 11006KT P6SM OVC007
     FM311600 15007KT P6SM SKC=

USA.gov is the U.S. government's official web portal to all federal, state and local government web resources and services.